Time;durP1;ratioP1;P1;durP2;ratioP2;P2;SDS_P1;SDS_P2;PMS_P1;PMS_P2;Temp;Humidity;BMP_temperature;BMP_pressure;BME280_temperature;BME280_humidity;BME280_pressure;Samples;Min_cycle;Max_cycle;Signal;HPM_P1;HPM_P2
2022/02/05 00:02:45;;;;;;;17.40;15.55;;;4.40;99.90;;;;;;5061719;28;20221;-66
2022/02/05 00:05:14;;;;;;;17.42;15.63;;;4.30;99.90;;;;;;5061681;28;20222;-67
2022/02/05 00:07:49;;;;;;;18.13;16.23;;;4.30;99.90;;;;;;5061794;28;20234;-67
2022/02/05 00:13:21;;;;;;;17.15;15.35;;;4.30;99.90;;;;;;5048562;28;20209;-66
2022/02/05 00:16:05;;;;;;;18.33;16.00;;;4.40;99.90;;;;;;5061223;28;20701;-67
2022/02/05 00:40:46;;;;;;;18.75;16.83;;;4.00;99.90;;;;;;5061297;28;20509;-67
2022/02/05 00:43:15;;;;;;;18.58;16.67;;;4.00;99.90;;;;;;5062150;28;20572;-67
2022/02/05 00:45:46;;;;;;;18.45;16.60;;;4.00;99.90;;;;;;5064633;28;20602;-67
2022/02/05 00:48:15;;;;;;;18.17;16.27;;;4.00;99.90;;;;;;5062843;28;20218;-67
2022/02/05 00:50:47;;;;;;;19.35;17.45;;;4.10;99.90;;;;;;5067736;28;20222;-67
2022/02/05 00:53:25;;;;;;;17.92;16.02;;;4.10;99.90;;;;;;5060894;28;20303;-67
2022/02/05 00:55:59;;;;;;;18.20;16.30;;;4.00;99.90;;;;;;5062225;28;20222;-67
2022/02/05 00:58:26;;;;;;;21.08;18.83;;;4.00;99.90;;;;;;5065250;28;20761;-67
2022/02/05 01:00:53;;;;;;;18.85;17.05;;;4.00;99.90;;;;;;5068982;28;20221;-67
2022/02/05 01:03:21;;;;;;;19.77;17.77;;;4.00;99.90;;;;;;5065899;28;20291;-67
2022/02/05 01:05:48;;;;;;;20.30;18.27;;;4.00;99.90;;;;;;5066327;28;20225;-67
2022/02/05 01:08:16;;;;;;;20.48;18.33;;;4.00;99.90;;;;;;5066500;28;20197;-68
2022/02/05 01:10:43;;;;;;;20.17;18.02;;;4.00;99.90;;;;;;5065782;28;20218;-66
2022/02/05 01:13:12;;;;;;;21.02;17.77;;;4.00;99.90;;;;;;5067032;28;20225;-67
2022/02/05 01:15:44;;;;;;;22.55;17.85;;;4.00;99.90;;;;;;5065354;28;20222;-67
2022/02/05 01:18:14;;;;;;;20.52;18.35;;;4.00;99.90;;;;;;5068523;28;20191;-67
2022/02/05 01:21:06;;;;;;;19.88;17.80;;;4.00;99.90;;;;;;5066946;28;20301;-67
2022/02/05 01:23:40;;;;;;;20.55;18.55;;;4.00;99.90;;;;;;5064979;28;20228;-67
2022/02/05 01:26:14;;;;;;;19.83;17.83;;;3.90;99.90;;;;;;5067380;28;20214;-67
2022/02/05 01:28:44;;;;;;;18.55;16.70;;;3.90;99.90;;;;;;5063241;28;20290;-67
2022/02/05 01:31:11;;;;;;;20.73;18.50;;;3.90;99.90;;;;;;5065519;28;20221;-67
2022/02/05 01:33:52;;;;;;;19.25;17.35;;;3.90;99.90;;;;;;5067273;28;20218;-66
2022/02/05 01:50:26;;;;;;;18.30;16.45;;;3.70;99.90;;;;;;5066902;28;20619;-67
2022/02/05 01:53:10;;;;;;;17.58;15.77;;;3.60;99.90;;;;;;5062415;28;20214;-67
2022/02/05 01:55:54;;;;;;;17.30;15.52;;;3.60;99.90;;;;;;5064406;28;20203;-66
2022/02/05 01:58:27;;;;;;;18.02;16.13;;;3.60;99.90;;;;;;5065004;28;20194;-66
2022/02/05 02:06:35;;;;;;;20.52;17.13;;;3.50;99.90;;;;;;5065511;28;20236;-66
2022/02/05 02:11:51;;;;;;;20.48;18.10;;;3.50;99.90;;;;;;5066111;28;20595;-67
2022/02/05 02:20:26;;;;;;;19.40;17.45;;;3.40;99.90;;;;;;5064488;28;20201;-66
2022/02/05 02:23:20;;;;;;;18.92;16.88;;;3.40;99.90;;;;;;5067258;28;20217;-67
2022/02/05 02:25:57;;;;;;;19.40;17.20;;;3.40;99.90;;;;;;5069913;28;20286;-66
2022/02/05 02:28:34;;;;;;;19.83;17.73;;;3.40;99.90;;;;;;5064041;28;20194;-66
2022/02/05 02:31:06;;;;;;;18.27;16.25;;;3.40;99.90;;;;;;5063775;28;20720;-67
2022/02/05 02:33:37;;;;;;;20.15;17.70;;;3.40;99.90;;;;;;5060591;28;20218;-66
2022/02/05 02:36:08;;;;;;;19.58;17.50;;;3.30;99.90;;;;;;5062500;28;20261;-66
2022/02/05 02:38:44;;;;;;;19.98;17.58;;;3.30;99.90;;;;;;5060619;28;20622;-66
2022/02/05 02:41:17;;;;;;;18.95;16.98;;;3.20;99.90;;;;;;5067338;28;20221;-66
2022/02/05 02:43:44;;;;;;;20.08;17.98;;;3.20;99.90;;;;;;5081333;28;20214;-66
2022/02/05 02:46:11;;;;;;;20.40;17.77;;;3.20;99.90;;;;;;5082617;28;20229;-66
2022/02/05 02:48:42;;;;;;;19.42;17.52;;;3.20;99.90;;;;;;5085900;28;20673;-67
2022/02/05 02:56:52;;;;;;;21.17;18.75;;;3.10;99.90;;;;;;5082113;28;20602;-67
2022/02/05 02:59:26;;;;;;;21.10;18.58;;;3.10;99.90;;;;;;5083467;28;20706;-67
2022/02/05 03:02:08;;;;;;;18.70;16.73;;;3.00;99.90;;;;;;5079698;28;20226;-66
2022/02/05 03:04:35;;;;;;;18.83;16.95;;;3.00;99.90;;;;;;5083480;28;20262;-67
2022/02/05 03:07:02;;;;;;;18.83;16.92;;;3.00;99.90;;;;;;5083657;27;20290;-66
2022/02/05 03:09:31;;;;;;;16.75;14.95;;;3.00;99.90;;;;;;5084085;28;20255;-66
2022/02/05 03:11:58;;;;;;;17.75;15.95;;;3.00;99.90;;;;;;5076247;28;20290;-67
2022/02/05 03:14:25;;;;;;;19.10;17.10;;;3.00;99.90;;;;;;5084428;28;20213;-66
2022/02/05 03:17:01;;;;;;;19.80;17.80;;;3.10;99.90;;;;;;5079333;28;20225;-66
2022/02/05 03:19:28;;;;;;;18.63;16.60;;;3.10;99.90;;;;;;5075319;28;20722;-66
2022/02/05 03:21:55;;;;;;;18.08;16.17;;;3.10;99.90;;;;;;5081623;27;20275;-66
2022/02/05 03:24:22;;;;;;;18.35;16.35;;;3.10;99.90;;;;;;5079572;28;20198;-66
2022/02/05 03:26:50;;;;;;;18.00;16.08;;;3.10;99.90;;;;;;5077624;27;20290;-67
2022/02/05 03:29:17;;;;;;;18.05;16.10;;;3.10;99.90;;;;;;5067223;28;20194;-67
2022/02/05 03:31:44;;;;;;;17.20;15.38;;;3.00;99.90;;;;;;5066722;28;20217;-66
2022/02/05 03:34:11;;;;;;;18.05;16.17;;;3.10;99.90;;;;;;5068631;28;21723;-67
2022/02/05 03:36:40;;;;;;;17.50;15.48;;;3.00;99.90;;;;;;5067998;28;20276;-67
2022/02/05 03:39:07;;;;;;;18.33;16.52;;;3.00;99.90;;;;;;5066275;28;20206;-67
2022/02/05 03:41:34;;;;;;;19.05;17.05;;;3.00;99.90;;;;;;5065810;28;20247;-66
2022/02/05 03:44:03;;;;;;;17.60;15.90;;;3.00;99.90;;;;;;5068520;28;20741;-66
2022/02/05 03:46:30;;;;;;;17.67;15.88;;;3.00;99.90;;;;;;5065225;28;20217;-67
2022/02/05 03:48:58;;;;;;;16.95;15.18;;;2.90;99.90;;;;;;5069355;28;20707;-67
2022/02/05 03:51:25;;;;;;;17.45;15.65;;;2.80;99.90;;;;;;5064411;28;20271;-66
2022/02/05 03:53:52;;;;;;;17.27;15.55;;;2.80;99.90;;;;;;5071887;28;20260;-66
2022/02/05 03:56:19;;;;;;;17.65;15.85;;;2.80;99.90;;;;;;5064234;28;20267;-66
2022/02/05 03:58:46;;;;;;;16.90;15.00;;;2.80;99.90;;;;;;5067997;28;20198;-67
2022/02/05 04:01:15;;;;;;;16.48;14.88;;;2.80;99.90;;;;;;5067554;28;20211;-66
2022/02/05 04:03:42;;;;;;;16.85;15.15;;;2.90;99.90;;;;;;5068305;28;20888;-66
2022/02/05 04:06:09;;;;;;;15.73;14.02;;;2.80;99.90;;;;;;5068085;28;20725;-66
2022/02/05 04:08:37;;;;;;;17.52;14.38;;;2.80;99.90;;;;;;5068078;28;20660;-67
2022/02/05 04:11:08;;;;;;;15.90;14.30;;;2.80;99.90;;;;;;5068932;28;20209;-67
2022/02/05 04:16:24;;;;;;;15.13;13.63;;;2.70;99.90;;;;;;5062170;28;20230;-68
2022/02/05 04:18:54;;;;;;;17.58;15.77;;;2.70;99.90;;;;;;5060639;28;20204;-67
2022/02/05 04:21:22;;;;;;;14.95;13.45;;;2.60;99.90;;;;;;5065425;28;20640;-67
2022/02/05 04:23:50;;;;;;;14.88;13.38;;;2.60;99.90;;;;;;5066004;28;20215;-66
2022/02/05 04:26:19;;;;;;;17.90;16.08;;;2.60;99.90;;;;;;5066047;28;20218;-66
2022/02/05 04:28:46;;;;;;;16.58;14.88;;;2.60;99.90;;;;;;5065831;28;20206;-67
2022/02/05 04:31:13;;;;;;;16.88;15.10;;;2.60;99.90;;;;;;5068445;28;20237;-66
2022/02/05 04:33:41;;;;;;;18.52;16.58;;;2.60;99.90;;;;;;5067364;28;20229;-66
2022/02/05 04:36:10;;;;;;;17.15;15.32;;;2.50;99.90;;;;;;5065570;28;20222;-65
2022/02/05 04:38:38;;;;;;;21.05;18.02;;;2.60;99.90;;;;;;5061479;28;20199;-67
2022/02/05 04:41:11;;;;;;;18.02;15.95;;;2.60;99.90;;;;;;5068633;28;20198;-66
2022/02/05 04:43:57;;;;;;;17.25;15.45;;;2.60;99.90;;;;;;5067389;28;20223;-67
2022/02/05 04:49:55;;;;;;;14.60;13.27;;;2.60;99.90;;;;;;5069693;28;20213;-66
2022/02/05 04:58:23;;;;;;;14.48;13.07;;;2.60;99.90;;;;;;5023113;28;20269;-67
2022/02/05 05:01:03;;;;;;;14.85;13.35;;;2.50;99.90;;;;;;5062228;28;20194;-66
2022/02/05 05:06:32;;;;;;;14.63;13.15;;;2.60;99.90;;;;;;5065782;28;20626;-66
2022/02/05 05:09:12;;;;;;;14.23;12.73;;;2.60;99.90;;;;;;5070528;28;20217;-66
2022/02/05 05:19:52;;;;;;;13.25;11.95;;;2.60;99.90;;;;;;5045538;28;20217;-66
2022/02/05 05:22:20;;;;;;;14.70;13.27;;;2.60;99.90;;;;;;5045147;28;20766;-66
2022/02/05 05:24:47;;;;;;;13.95;12.55;;;2.60;99.90;;;;;;5046089;28;20265;-66
2022/02/05 05:27:14;;;;;;;13.73;12.30;;;2.60;99.90;;;;;;5048604;28;20191;-67
2022/02/05 05:29:42;;;;;;;12.65;11.45;;;2.60;99.90;;;;;;5055203;28;20214;-66
2022/02/05 05:32:09;;;;;;;12.38;10.85;;;2.50;99.90;;;;;;5070063;28;20853;-66
2022/02/05 05:34:36;;;;;;;12.75;11.23;;;2.60;99.90;;;;;;5052321;28;20211;-66
2022/02/05 05:37:03;;;;;;;11.82;10.63;;;2.60;99.90;;;;;;5051812;28;20237;-65
2022/02/05 05:39:35;;;;;;;12.88;11.57;;;2.50;99.90;;;;;;5047747;28;20215;-67
2022/02/05 05:42:05;;;;;;;12.77;11.13;;;2.50;99.90;;;;;;5066840;28;20291;-68
2022/02/05 05:47:32;;;;;;;12.55;11.30;;;2.40;99.90;;;;;;5005608;28;20207;-75
2022/02/05 05:50:09;;;;;;;13.98;11.02;;;2.40;99.90;;;;;;5008059;28;20228;-74
2022/02/05 05:52:36;;;;;;;12.35;11.23;;;2.40;99.90;;;;;;5009098;28;20196;-75
2022/02/05 05:55:05;;;;;;;12.15;10.95;;;2.40;99.90;;;;;;5024048;28;20246;-75
2022/02/05 05:57:32;;;;;;;11.48;10.38;;;2.50;99.90;;;;;;5024240;28;20227;-74
2022/02/05 05:59:59;;;;;;;13.63;12.23;;;2.50;99.90;;;;;;5027430;28;20273;-75
2022/02/05 06:02:26;;;;;;;12.85;11.52;;;2.60;99.90;;;;;;5026997;28;20199;-76
2022/02/05 06:04:53;;;;;;;12.48;11.18;;;2.60;99.90;;;;;;5026572;28;20697;-76
2022/02/05 06:07:20;;;;;;;13.13;11.77;;;2.60;99.90;;;;;;5028115;28;20204;-75
2022/02/05 06:09:47;;;;;;;12.20;11.00;;;2.50;99.90;;;;;;5025703;28;20220;-78
2022/02/05 06:12:16;;;;;;;12.48;11.27;;;2.50;99.90;;;;;;5027294;28;20187;-75
2022/02/05 06:14:44;;;;;;;12.43;11.27;;;2.50;99.90;;;;;;5027145;28;20231;-75
2022/02/05 06:17:12;;;;;;;13.32;11.98;;;2.50;99.90;;;;;;5028726;28;20231;-75
2022/02/05 06:19:41;;;;;;;12.85;11.55;;;2.50;99.90;;;;;;5028372;28;20302;-75
2022/02/05 06:22:08;;;;;;;11.65;10.55;;;2.50;99.90;;;;;;5025937;28;20199;-76
2022/02/05 06:24:35;;;;;;;12.90;11.70;;;2.50;99.90;;;;;;5025367;28;20242;-74
2022/02/05 06:27:02;;;;;;;11.27;10.18;;;2.50;99.90;;;;;;5024364;28;20569;-75
2022/02/05 06:29:31;;;;;;;10.73;9.70;;;2.50;99.90;;;;;;5027326;28;20764;-77
2022/02/05 06:31:58;;;;;;;12.55;11.27;;;2.60;99.90;;;;;;5026844;28;20262;-74
2022/02/05 06:34:25;;;;;;;11.48;10.48;;;2.60;99.90;;;;;;5025996;28;20219;-75
2022/02/05 06:36:52;;;;;;;11.32;10.23;;;2.60;99.90;;;;;;5023534;28;20720;-74
2022/02/05 06:39:20;;;;;;;11.10;10.10;;;2.60;99.90;;;;;;5024575;28;20706;-73
2022/02/05 06:41:47;;;;;;;11.13;10.13;;;2.60;99.90;;;;;;5024204;28;20631;-74
2022/02/05 06:44:14;;;;;;;11.13;10.02;;;2.60;99.90;;;;;;5020293;28;20577;-74
2022/02/05 06:46:43;;;;;;;10.82;9.90;;;2.60;99.90;;;;;;5025533;28;20199;-74
2022/02/05 06:49:11;;;;;;;11.77;10.60;;;2.60;99.90;;;;;;5026679;28;20219;-75
2022/02/05 06:51:38;;;;;;;10.77;9.75;;;2.70;99.90;;;;;;5026817;28;20202;-74
2022/02/05 06:54:05;;;;;;;11.32;10.23;;;2.70;99.90;;;;;;5033001;28;20227;-73
2022/02/05 06:56:32;;;;;;;11.18;9.95;;;2.80;99.90;;;;;;5030506;28;20220;-73
2022/02/05 06:58:59;;;;;;;11.63;10.50;;;2.80;99.90;;;;;;5029513;28;20196;-76
2022/02/05 07:01:26;;;;;;;12.10;10.88;;;2.80;99.90;;;;;;5026125;28;20650;-74
2022/02/05 07:03:55;;;;;;;13.00;11.60;;;2.80;99.90;;;;;;5031778;28;20223;-75
2022/02/05 07:06:22;;;;;;;14.40;12.85;;;2.90;99.90;;;;;;5033176;28;20202;-75
2022/02/05 07:08:49;;;;;;;14.48;12.15;;;2.90;99.90;;;;;;5033705;28;20203;-74
2022/02/05 07:11:16;;;;;;;12.20;11.00;;;3.00;99.90;;;;;;5033527;28;20219;-75
2022/02/05 07:13:43;;;;;;;12.68;10.77;;;3.10;99.90;;;;;;5033256;28;20603;-74
2022/02/05 07:16:15;;;;;;;12.05;10.85;;;3.20;99.90;;;;;;5031720;28;20258;-76
2022/02/05 07:18:56;;;;;;;11.75;10.65;;;3.30;99.90;;;;;;5032014;28;20208;-76
2022/02/05 07:21:31;;;;;;;11.30;10.15;;;3.30;99.90;;;;;;5042016;28;20223;-74
2022/02/05 07:29:23;;;;;;;11.45;10.35;;;3.60;99.90;;;;;;5027928;28;20193;-76
2022/02/05 07:31:52;;;;;;;10.73;9.73;;;3.70;99.90;;;;;;5030225;28;20200;-75
2022/02/05 07:34:22;;;;;;;10.55;9.48;;;3.90;99.90;;;;;;5026329;28;20217;-75
2022/02/05 07:36:51;;;;;;;11.73;10.63;;;4.00;99.90;;;;;;5030582;28;20690;-74
2022/02/05 07:39:19;;;;;;;13.30;10.98;;;4.20;99.90;;;;;;5029940;28;20200;-74
2022/02/05 07:41:46;;;;;;;11.82;10.73;;;4.50;99.90;;;;;;5030177;28;20247;-73
2022/02/05 07:44:16;;;;;;;11.50;10.40;;;4.90;99.90;;;;;;5031118;28;20289;-73
2022/02/05 07:46:47;;;;;;;11.20;10.07;;;5.20;99.90;;;;;;5031060;28;20230;-74
2022/02/05 07:49:14;;;;;;;11.10;10.00;;;5.50;99.90;;;;;;5031356;28;20199;-74
2022/02/05 07:51:41;;;;;;;10.82;9.75;;;5.70;99.90;;;;;;5033788;28;20215;-75
2022/02/05 07:54:11;;;;;;;13.18;11.80;;;5.90;99.90;;;;;;5025509;28;20247;-74
2022/02/05 07:56:41;;;;;;;11.20;10.20;;;6.00;99.90;;;;;;5025472;28;20334;-76
2022/02/05 07:59:08;;;;;;;12.07;10.98;;;6.00;99.90;;;;;;5031930;28;20212;-73
2022/02/05 08:01:35;;;;;;;11.77;10.68;;;6.20;99.90;;;;;;5030546;28;20219;-75
2022/02/05 08:04:02;;;;;;;10.77;9.75;;;6.30;99.90;;;;;;5026864;28;20219;-75
2022/02/05 08:06:29;;;;;;;11.05;10.05;;;6.40;99.90;;;;;;5028568;28;20215;-75
2022/02/05 08:09:00;;;;;;;13.18;9.98;;;6.40;99.90;;;;;;5029326;28;20207;-74
2022/02/05 08:11:37;;;;;;;10.57;9.48;;;6.40;99.90;;;;;;5031242;28;20220;-74
2022/02/05 08:14:08;;;;;;;10.77;9.68;;;6.40;99.90;;;;;;5038059;28;20638;-75
2022/02/05 08:16:49;;;;;;;9.50;8.50;;;6.50;99.90;;;;;;5028191;28;20665;-75
2022/02/05 08:19:16;;;;;;;12.10;8.68;;;6.70;99.90;;;;;;5029935;28;20196;-74
2022/02/05 08:21:43;;;;;;;10.48;9.13;;;7.00;99.90;;;;;;5027258;28;20281;-75
2022/02/05 08:24:10;;;;;;;12.57;11.38;;;7.00;99.90;;;;;;5026740;28;20238;-73
2022/02/05 08:26:39;;;;;;;11.38;10.23;;;7.00;99.90;;;;;;5028997;28;20218;-74
2022/02/05 08:29:08;;;;;;;10.65;9.55;;;7.00;99.90;;;;;;5026605;28;20231;-73
2022/02/05 08:31:35;;;;;;;10.45;9.43;;;6.90;99.90;;;;;;5028389;28;20226;-74
2022/02/05 08:34:03;;;;;;;10.35;9.25;;;6.60;99.90;;;;;;5020321;28;20316;-75
2022/02/05 08:36:40;;;;;;;10.35;8.88;;;6.50;99.90;;;;;;5020914;28;20277;-73
2022/02/05 08:39:07;;;;;;;10.48;9.48;;;6.60;99.90;;;;;;5023322;28;20200;-73
2022/02/05 08:41:34;;;;;;;10.35;8.93;;;6.70;99.90;;;;;;5020421;28;20327;-74
2022/02/05 08:44:03;;;;;;;10.75;9.75;;;6.50;99.90;;;;;;5022182;28;20231;-73
2022/02/05 08:46:30;;;;;;;9.77;8.88;;;6.30;99.90;;;;;;5022915;28;20230;-73
2022/02/05 08:48:57;;;;;;;10.48;9.20;;;6.20;99.90;;;;;;5029419;28;20544;-73
2022/02/05 08:51:24;;;;;;;10.63;9.55;;;6.00;99.90;;;;;;5022361;28;20821;-71
2022/02/05 08:53:53;;;;;;;11.48;10.35;;;5.90;99.90;;;;;;5027262;28;20754;-73
2022/02/05 08:56:21;;;;;;;11.18;10.07;;;5.80;99.90;;;;;;5022850;28;20228;-73
2022/02/05 08:58:49;;;;;;;10.27;9.38;;;5.80;99.90;;;;;;5024811;28;20216;-74
2022/02/05 09:01:21;;;;;;;10.68;9.68;;;5.90;99.90;;;;;;5024975;28;20259;-73
2022/02/05 09:03:59;;;;;;;10.95;9.73;;;6.00;99.90;;;;;;5024945;28;20284;-74
2022/02/05 09:06:29;;;;;;;10.05;9.05;;;6.00;99.90;;;;;;5042179;28;20245;-73
2022/02/05 09:09:08;;;;;;;10.38;9.27;;;6.20;99.90;;;;;;5023913;28;20187;-73
2022/02/05 09:11:41;;;;;;;9.98;9.07;;;6.40;99.90;;;;;;5023138;28;20269;-74
2022/02/05 09:14:18;;;;;;;9.63;8.68;;;6.90;99.90;;;;;;5023820;28;21326;-73
2022/02/05 09:16:47;;;;;;;10.88;9.85;;;7.20;99.90;;;;;;5023830;28;20226;-73
2022/02/05 09:19:14;;;;;;;11.23;9.70;;;7.60;99.90;;;;;;5023609;28;20241;-73
2022/02/05 09:21:41;;;;;;;10.35;9.38;;;7.90;99.90;;;;;;5023585;28;20712;-74
2022/02/05 09:24:09;;;;;;;11.88;9.85;;;8.00;99.90;;;;;;5023710;28;20890;-72
2022/02/05 09:26:39;;;;;;;10.63;9.45;;;8.30;99.90;;;;;;5022383;28;20219;-73
2022/02/05 09:29:14;;;;;;;9.88;8.88;;;8.70;99.90;;;;;;5016881;28;20198;-73
2022/02/05 09:31:42;;;;;;;9.82;8.82;;;9.20;99.90;;;;;;5023094;28;20218;-74
2022/02/05 09:34:11;;;;;;;9.80;9.00;;;9.50;99.90;;;;;;5024659;28;20698;-74
2022/02/05 09:36:39;;;;;;;10.20;9.18;;;9.70;99.90;;;;;;5021703;28;20211;-73
2022/02/05 09:39:07;;;;;;;9.60;8.70;;;10.80;99.90;;;;;;5024753;28;20219;-76
2022/02/05 09:41:34;;;;;;;9.38;8.45;;;12.10;99.90;;;;;;5023622;28;20223;-74
2022/02/05 09:44:01;;;;;;;9.27;8.40;;;13.20;99.90;;;;;;5020409;28;20300;-74
2022/02/05 09:46:28;;;;;;;9.90;8.90;;;13.80;99.90;;;;;;5023454;28;20223;-74
2022/02/05 09:48:56;;;;;;;10.20;9.15;;;13.80;99.90;;;;;;5024700;28;20277;-74
2022/02/05 09:51:29;;;;;;;10.80;9.40;;;13.60;99.90;;;;;;5020387;28;20223;-75
2022/02/05 09:53:58;;;;;;;9.43;8.52;;;13.00;99.90;;;;;;5023484;28;20310;-74
2022/02/05 09:56:26;;;;;;;10.45;8.30;;;12.80;99.90;;;;;;5020476;28;20215;-75
2022/02/05 09:58:54;;;;;;;10.25;8.73;;;12.90;99.90;;;;;;5020933;28;20223;-74
2022/02/05 10:01:23;;;;;;;9.82;8.93;;;13.30;99.90;;;;;;5032752;28;20742;-74
2022/02/05 10:03:52;;;;;;;10.05;9.05;;;13.50;99.90;;;;;;5022809;28;20212;-74
2022/02/05 10:06:25;;;;;;;9.65;8.75;;;13.40;99.90;;;;;;5019895;28;20215;-74
2022/02/05 10:08:59;;;;;;;9.55;8.57;;;13.60;99.90;;;;;;5018503;28;20184;-73
2022/02/05 10:11:30;;;;;;;10.00;9.00;;;13.70;99.90;;;;;;5015829;28;20273;-72
2022/02/05 10:14:11;;;;;;;9.38;8.48;;;13.40;99.90;;;;;;5022156;28;20215;-72
2022/02/05 10:16:38;;;;;;;9.50;8.55;;;13.40;99.90;;;;;;5019856;28;20251;-74
2022/02/05 10:19:06;;;;;;;9.95;9.05;;;13.60;99.90;;;;;;5023860;28;20563;-74
2022/02/05 10:21:33;;;;;;;10.98;9.27;;;13.50;99.90;;;;;;5018843;28;20722;-71
2022/02/05 10:24:05;;;;;;;9.32;8.45;;;13.60;99.90;;;;;;5023085;28;20219;-73
2022/02/05 10:26:38;;;;;;;11.23;8.80;;;13.80;99.90;;;;;;5021642;28;20639;-71
2022/02/05 10:29:08;;;;;;;9.50;8.60;;;13.90;99.90;;;;;;5023771;28;20207;-74
2022/02/05 10:31:59;;;;;;;9.52;8.63;;;13.80;99.90;;;;;;5017573;28;20219;-74
2022/02/05 10:34:27;;;;;;;9.30;8.35;;;13.80;99.90;;;;;;5020666;28;20219;-72
2022/02/05 10:37:10;;;;;;;9.55;8.05;;;13.60;99.90;;;;;;5015435;28;20280;-73
2022/02/05 10:40:04;;;;;;;9.35;8.52;;;13.70;99.90;;;;;;5025642;28;20254;-74
2022/02/05 10:45:16;;;;;;;8.45;7.53;;;13.90;99.90;;;;;;5023411;28;20240;-75
2022/02/05 10:47:55;;;;;;;8.40;7.55;;;13.90;99.90;;;;;;5018918;28;20203;-73
2022/02/05 10:50:24;;;;;;;8.70;7.90;;;13.90;99.90;;;;;;5023092;28;20309;-74
2022/02/05 10:52:57;;;;;;;8.80;7.90;;;14.00;99.90;;;;;;5024411;28;20224;-74
2022/02/05 10:55:44;;;;;;;7.68;6.97;;;14.10;99.90;;;;;;5039351;28;20407;-74
2022/02/05 10:58:19;;;;;;;8.93;8.02;;;14.00;99.90;;;;;;5020376;28;20311;-74
2022/02/05 11:06:17;;;;;;;7.78;6.97;;;13.60;99.90;;;;;;5024283;28;20771;-74
2022/02/05 11:08:44;;;;;;;7.75;6.93;;;13.90;99.90;;;;;;5024085;28;20184;-75
2022/02/05 11:14:11;;;;;;;7.70;7.00;;;13.80;99.90;;;;;;5017074;28;20246;-73
2022/02/05 11:17:05;;;;;;;8.77;7.85;;;13.70;99.90;;;;;;5022978;28;20222;-74
2022/02/05 11:19:33;;;;;;;7.25;6.55;;;13.70;99.90;;;;;;5022203;28;20214;-74
2022/02/05 11:22:00;;;;;;;8.05;7.25;;;13.80;99.90;;;;;;5022228;28;20291;-74
2022/02/05 11:24:30;;;;;;;7.25;6.55;;;13.80;99.90;;;;;;5021763;28;20240;-73
2022/02/05 11:26:59;;;;;;;7.10;6.40;;;13.70;99.90;;;;;;5022044;28;20215;-73
2022/02/05 11:29:33;;;;;;;7.75;7.03;;;13.80;99.90;;;;;;5023878;28;20196;-74
2022/02/05 11:32:23;;;;;;;7.10;6.40;;;13.80;99.90;;;;;;5020589;28;20219;-72
2022/02/05 11:35:06;;;;;;;7.55;6.68;;;14.10;99.90;;;;;;5021714;28;20223;-74
2022/02/05 11:37:53;;;;;;;6.82;6.13;;;14.10;99.90;;;;;;5022336;28;20212;-74
2022/02/05 11:40:48;;;;;;;7.25;6.53;;;14.60;99.90;;;;;;5021912;28;20203;-74
2022/02/05 11:43:19;;;;;;;7.07;6.35;;;15.10;99.90;;;;;;5019138;28;20232;-73
2022/02/05 11:45:47;;;;;;;6.65;6.05;;;15.30;99.90;;;;;;5060885;22;20579;-70
2022/02/05 11:48:40;;;;;;;7.78;6.97;;;15.50;99.90;;;;;;5039324;28;20203;-70
2022/02/05 11:51:12;;;;;;;9.35;6.78;;;15.50;99.90;;;;;;5040317;28;20218;-69
2022/02/05 11:54:06;;;;;;;6.32;5.72;;;15.90;99.90;;;;;;5040167;28;20252;-70
2022/02/05 11:56:52;;;;;;;6.97;6.28;;;16.30;99.90;;;;;;5015844;28;20299;-69
2022/02/05 11:59:22;;;;;;;7.97;6.35;;;16.60;99.90;;;;;;5021750;28;20247;-68
2022/02/05 12:01:50;;;;;;;6.65;6.05;;;16.60;99.90;;;;;;5022415;28;20232;-69
2022/02/05 12:04:20;;;;;;;6.25;5.65;;;16.30;99.90;;;;;;5021459;28;20219;-68
2022/02/05 12:06:50;;;;;;;7.57;5.57;;;16.00;99.90;;;;;;5018427;28;20737;-69
2022/02/05 12:09:42;;;;;;;6.47;5.88;;;15.50;99.90;;;;;;5022108;28;20270;-68
2022/02/05 12:12:36;;;;;;;7.30;6.07;;;15.00;99.90;;;;;;5019789;28;20224;-68
2022/02/05 12:15:25;;;;;;;5.53;5.03;;;15.00;99.90;;;;;;5007381;28;20595;-68
2022/02/05 12:18:24;;;;;;;7.95;5.97;;;15.30;99.90;;;;;;5022310;28;20227;-68
2022/02/05 12:21:13;;;;;;;6.60;6.00;;;15.20;99.90;;;;;;5022105;28;20199;-68
2022/02/05 12:27:02;;;;;;;5.30;4.80;;;15.30;99.90;;;;;;5019340;28;20483;-68
2022/02/05 12:29:33;;;;;;;5.68;4.78;;;15.30;99.90;;;;;;5021269;28;20234;-69
2022/02/05 12:32:02;;;;;;;5.65;5.15;;;15.50;99.90;;;;;;5021870;28;20209;-68
2022/02/05 12:34:38;;;;;;;5.97;5.38;;;15.60;99.90;;;;;;5018762;28;20559;-68
2022/02/05 12:37:06;;;;;;;6.22;5.57;;;15.50;99.90;;;;;;5022082;28;20196;-68
2022/02/05 12:39:35;;;;;;;6.40;5.70;;;15.10;99.90;;;;;;5019153;28;20226;-68
2022/02/05 12:42:07;;;;;;;8.13;6.40;;;14.70;99.90;;;;;;5022600;28;20206;-69
2022/02/05 12:44:38;;;;;;;6.22;5.63;;;14.50;99.90;;;;;;5020582;28;20226;-71
2022/02/05 12:47:11;;;;;;;6.90;6.15;;;14.40;99.90;;;;;;5021529;28;20203;-70
2022/02/05 12:49:47;;;;;;;7.18;6.03;;;14.30;99.90;;;;;;5019526;28;20763;-70
2022/02/05 12:52:16;;;;;;;5.13;4.63;;;14.20;99.90;;;;;;5021078;28;20269;-70
2022/02/05 12:54:49;;;;;;;4.60;4.20;;;14.30;99.90;;;;;;5016996;28;20572;-69
2022/02/05 12:57:18;;;;;;;6.38;4.82;;;14.50;99.90;;;;;;5019859;28;20206;-69
2022/02/05 12:59:45;;;;;;;4.40;4.00;;;14.80;99.90;;;;;;5017348;28;20246;-71
2022/02/05 13:02:16;;;;;;;4.30;3.67;;;15.00;99.90;;;;;;5021166;28;20211;-70
2022/02/05 13:04:47;;;;;;;5.20;4.40;;;15.30;99.90;;;;;;5017025;28;20231;-69
2022/02/05 13:07:16;;;;;;;4.93;4.03;;;15.60;99.90;;;;;;5017555;28;20196;-69
2022/02/05 13:09:48;;;;;;;4.38;3.97;;;15.50;99.90;;;;;;5014516;28;20222;-68
2022/02/05 13:12:17;;;;;;;4.20;3.78;;;15.70;99.90;;;;;;5021149;28;20353;-68
2022/02/05 13:14:51;;;;;;;4.72;4.22;;;15.80;99.90;;;;;;5018556;28;20318;-68
2022/02/05 13:17:34;;;;;;;3.85;3.55;;;15.90;99.80;;;;;;5018391;28;20196;-68
2022/02/05 13:20:20;;;;;;;4.78;4.28;;;15.90;99.40;;;;;;5013922;28;20232;-68
2022/02/05 13:25:43;;;;;;;4.15;3.33;;;16.20;99.40;;;;;;5017811;28;20234;-69
2022/02/05 13:28:25;;;;;;;3.50;3.20;;;16.10;98.10;;;;;;5014386;28;20211;-68
2022/02/05 13:36:37;;;;;;;5.30;4.00;;;15.80;98.90;;;;;;5020646;28;20254;-68
2022/02/05 13:39:17;;;;;;;4.28;3.88;;;15.70;98.40;;;;;;5020252;28;20289;-68
2022/02/05 13:41:51;;;;;;;13.70;4.75;;;15.50;99.20;;;;;;5014850;28;20192;-69
2022/02/05 13:44:22;;;;;;;21.00;5.32;;;15.40;99.50;;;;;;5029028;28;20640;-68
2022/02/05 13:47:07;;;;;;;7.13;4.60;;;15.50;99.60;;;;;;5036364;28;21130;-68
2022/02/05 13:49:36;;;;;;;4.75;3.90;;;15.60;99.40;;;;;;5026169;28;20228;-68
2022/02/05 13:52:11;;;;;;;4.45;4.00;;;15.70;99.40;;;;;;5016563;28;20206;-68
2022/02/05 13:54:40;;;;;;;4.47;3.92;;;15.60;99.20;;;;;;5017606;28;20231;-68
2022/02/05 13:57:08;;;;;;;4.10;3.70;;;15.40;99.40;;;;;;5019607;28;20254;-68
2022/02/05 13:59:35;;;;;;;4.28;3.88;;;15.30;99.10;;;;;;5017091;28;20215;-68
2022/02/05 14:02:18;;;;;;;3.70;3.40;;;15.30;99.10;;;;;;5013490;28;20200;-68
2022/02/05 14:05:01;;;;;;;4.18;3.88;;;15.30;98.70;;;;;;5015711;28;20230;-68
2022/02/05 14:07:42;;;;;;;5.53;4.30;;;15.40;98.20;;;;;;5019007;28;20658;-68
2022/02/05 14:10:14;;;;;;;4.53;4.13;;;15.40;98.50;;;;;;5022218;28;20215;-68
2022/02/05 14:12:49;;;;;;;4.47;4.07;;;15.40;99.10;;;;;;5022930;28;20207;-68
2022/02/05 14:15:17;;;;;;;4.47;3.90;;;15.30;99.00;;;;;;5022064;28;20309;-69
2022/02/05 14:17:45;;;;;;;5.00;4.50;;;15.30;98.90;;;;;;5019407;28;20195;-68
2022/02/05 14:20:16;;;;;;;4.03;3.63;;;15.40;99.30;;;;;;5017757;28;20212;-68
2022/02/05 14:22:48;;;;;;;3.95;3.65;;;15.40;99.10;;;;;;5014989;28;20207;-68
2022/02/05 14:25:20;;;;;;;4.43;3.70;;;15.40;98.90;;;;;;5020213;28;20219;-66
2022/02/05 14:28:02;;;;;;;3.55;3.25;;;15.30;98.70;;;;;;5017421;28;20200;-65
2022/02/05 14:30:30;;;;;;;4.10;3.28;;;15.30;98.40;;;;;;5020550;28;20743;-68
2022/02/05 14:33:01;;;;;;;3.95;3.55;;;15.30;98.60;;;;;;5019589;28;20231;-67
2022/02/05 14:35:46;;;;;;;4.68;3.92;;;15.30;97.80;;;;;;5014559;28;20645;-66
2022/02/05 14:40:57;;;;;;;3.55;3.25;;;14.90;99.10;;;;;;5019003;28;20226;-66
2022/02/05 14:43:24;;;;;;;5.70;3.70;;;14.40;99.40;;;;;;5017556;28;20711;-68
2022/02/05 14:45:53;;;;;;;3.95;3.55;;;14.00;99.90;;;;;;5018277;28;20263;-67
2022/02/05 14:48:20;;;;;;;3.97;3.55;;;13.70;99.90;;;;;;5013541;28;20207;-67
2022/02/05 14:50:50;;;;;;;4.20;3.20;;;13.70;99.90;;;;;;5016160;28;20219;-67
2022/02/05 14:53:17;;;;;;;5.18;2.80;;;13.60;99.90;;;;;;5020783;28;20290;-67
2022/02/05 14:55:44;;;;;;;2.88;2.63;;;13.50;99.90;;;;;;5015277;28;20673;-67
2022/02/05 14:58:11;;;;;;;2.95;2.65;;;13.40;99.90;;;;;;5020342;28;20192;-67
2022/02/05 15:00:38;;;;;;;2.60;2.40;;;13.30;99.90;;;;;;5019330;28;20273;-67